sensor_id;sensor_type;location;lat;lon;timestamp;pressure;altitude;pressure_sealevel;temperature;humidity
12757;BME280;31601;48.042;12.240;2022-12-11T00:00:42;95309.41;;;0.84;73.48
12757;BME280;31601;48.042;12.240;2022-12-11T00:03:09;95306.44;;;0.79;73.82
12757;BME280;31601;48.042;12.240;2022-12-11T00:05:37;95304.19;;;0.66;74.05
12757;BME280;31601;48.042;12.240;2022-12-11T00:08:04;95306.94;;;0.65;74.19
12757;BME280;31601;48.042;12.240;2022-12-11T00:10:31;95304.19;;;0.48;74.47
12757;BME280;31601;48.042;12.240;2022-12-11T00:12:58;95301.63;;;0.39;74.49
12757;BME280;31601;48.042;12.240;2022-12-11T00:15:26;95305.75;;;0.31;74.71
12757;BME280;31601;48.042;12.240;2022-12-11T00:17:53;95296.72;;;0.17;75.11
12757;BME280;31601;48.042;12.240;2022-12-11T00:20:20;95302.06;;;0.34;75.25
12757;BME280;31601;48.042;12.240;2022-12-11T00:22:46;95313.25;;;0.52;74.49
12757;BME280;31601;48.042;12.240;2022-12-11T00:25:13;95308.28;;;0.69;74.74
12757;BME280;31601;48.042;12.240;2022-12-11T00:27:39;95321.09;;;0.61;74.42
12757;BME280;31601;48.042;12.240;2022-12-11T00:30:07;95319.44;;;0.87;73.79
12757;BME280;31601;48.042;12.240;2022-12-11T00:32:35;95315.91;;;0.88;73.46
12757;BME280;31601;48.042;12.240;2022-12-11T00:35:01;95317.06;;;0.94;73.44
12757;BME280;31601;48.042;12.240;2022-12-11T00:37:28;95329.84;;;0.78;73.40
12757;BME280;31601;48.042;12.240;2022-12-11T00:39:54;95315.00;;;0.80;73.35
12757;BME280;31601;48.042;12.240;2022-12-11T00:42:21;95312.72;;;0.95;73.24
12757;BME280;31601;48.042;12.240;2022-12-11T00:44:47;95313.38;;;0.97;72.91
12757;BME280;31601;48.042;12.240;2022-12-11T00:47:15;95315.16;;;0.96;72.82
12757;BME280;31601;48.042;12.240;2022-12-11T00:49:42;95319.31;;;1.07;72.69
12757;BME280;31601;48.042;12.240;2022-12-11T00:52:09;95324.31;;;0.91;72.77
12757;BME280;31601;48.042;12.240;2022-12-11T00:54:36;95330.41;;;0.89;72.69
12757;BME280;31601;48.042;12.240;2022-12-11T00:57:02;95327.97;;;0.88;72.88
12757;BME280;31601;48.042;12.240;2022-12-11T00:59:29;95337.00;;;0.84;72.87
12757;BME280;31601;48.042;12.240;2022-12-11T01:01:55;95335.44;;;0.73;73.11
12757;BME280;31601;48.042;12.240;2022-12-11T01:04:22;95341.25;;;0.75;72.74
12757;BME280;31601;48.042;12.240;2022-12-11T01:06:50;95334.94;;;0.87;72.53
12757;BME280;31601;48.042;12.240;2022-12-11T01:09:16;95347.38;;;0.74;72.99
12757;BME280;31601;48.042;12.240;2022-12-11T01:12:00;95354.22;;;0.65;73.36
12757;BME280;31601;48.042;12.240;2022-12-11T01:14:27;95345.47;;;0.76;73.05
12757;BME280;31601;48.042;12.240;2022-12-11T01:16:53;95353.84;;;0.23;74.01
12757;BME280;31601;48.042;12.240;2022-12-11T01:19:20;95360.75;;;0.60;73.16
12757;BME280;31601;48.042;12.240;2022-12-11T01:21:46;95354.25;;;0.56;72.74
12757;BME280;31601;48.042;12.240;2022-12-11T01:24:14;95364.63;;;0.46;73.25
12757;BME280;31601;48.042;12.240;2022-12-11T01:26:41;95357.88;;;0.35;73.80
12757;BME280;31601;48.042;12.240;2022-12-11T01:29:07;95354.63;;;0.33;73.49
12757;BME280;31601;48.042;12.240;2022-12-11T01:31:33;95361.41;;;0.62;73.22
12757;BME280;31601;48.042;12.240;2022-12-11T01:34:00;95357.09;;;0.25;73.69
12757;BME280;31601;48.042;12.240;2022-12-11T01:36:26;95350.50;;;0.40;73.78
12757;BME280;31601;48.042;12.240;2022-12-11T01:38:53;95353.06;;;0.12;74.56
12757;BME280;31601;48.042;12.240;2022-12-11T01:41:21;95349.44;;;0.43;73.72
12757;BME280;31601;48.042;12.240;2022-12-11T01:43:55;95351.50;;;0.67;72.81
12757;BME280;31601;48.042;12.240;2022-12-11T01:46:21;95362.25;;;0.62;72.67
12757;BME280;31601;48.042;12.240;2022-12-11T01:48:48;95354.53;;;0.52;72.69
12757;BME280;31601;48.042;12.240;2022-12-11T01:51:15;95358.13;;;0.42;72.52
12757;BME280;31601;48.042;12.240;2022-12-11T01:53:45;95358.41;;;0.39;72.66
12757;BME280;31601;48.042;12.240;2022-12-11T01:56:15;95361.69;;;0.31;72.95
12757;BME280;31601;48.042;12.240;2022-12-11T01:58:46;95356.78;;;0.38;72.78
12757;BME280;31601;48.042;12.240;2022-12-11T02:01:20;95360.31;;;0.37;72.72
12757;BME280;31601;48.042;12.240;2022-12-11T02:03:48;95363.81;;;0.45;72.47
12757;BME280;31601;48.042;12.240;2022-12-11T02:06:30;95367.28;;;0.26;72.54
12757;BME280;31601;48.042;12.240;2022-12-11T02:08:58;95362.75;;;0.38;72.23
12757;BME280;31601;48.042;12.240;2022-12-11T02:11:33;95366.28;;;0.37;72.23
12757;BME280;31601;48.042;12.240;2022-12-11T02:14:04;95370.72;;;0.55;71.48
12757;BME280;31601;48.042;12.240;2022-12-11T02:16:38;95365.63;;;0.35;71.77
12757;BME280;31601;48.042;12.240;2022-12-11T02:19:17;95367.59;;;0.51;71.77
12757;BME280;31601;48.042;12.240;2022-12-11T02:21:48;95368.53;;;0.22;72.38
12757;BME280;31601;48.042;12.240;2022-12-11T02:24:25;95364.91;;;0.05;72.50
12757;BME280;31601;48.042;12.240;2022-12-11T02:27:10;95363.13;;;0.06;73.26
12757;BME280;31601;48.042;12.240;2022-12-11T02:29:44;95366.47;;;0.26;72.84
12757;BME280;31601;48.042;12.240;2022-12-11T02:32:18;95360.66;;;0.24;72.85
12757;BME280;31601;48.042;12.240;2022-12-11T02:34:51;95360.09;;;0.30;72.89
12757;BME280;31601;48.042;12.240;2022-12-11T02:37:23;95361.09;;;0.09;73.43
12757;BME280;31601;48.042;12.240;2022-12-11T02:39:53;95348.50;;;-0.04;73.08
12757;BME280;31601;48.042;12.240;2022-12-11T02:42:22;95355.41;;;0.06;73.16
12757;BME280;31601;48.042;12.240;2022-12-11T02:44:54;95356.75;;;0.10;72.53
12757;BME280;31601;48.042;12.240;2022-12-11T02:47:22;95358.00;;;-0.04;72.90
12757;BME280;31601;48.042;12.240;2022-12-11T02:49:51;95358.00;;;-0.04;72.81
12757;BME280;31601;48.042;12.240;2022-12-11T02:52:20;95356.94;;;-0.02;72.26
12757;BME280;31601;48.042;12.240;2022-12-11T02:54:49;95349.91;;;0.18;71.90
12757;BME280;31601;48.042;12.240;2022-12-11T02:57:22;95355.81;;;0.01;71.72
12757;BME280;31601;48.042;12.240;2022-12-11T02:59:51;95355.31;;;-0.03;71.82
12757;BME280;31601;48.042;12.240;2022-12-11T03:02:18;95358.53;;;-0.01;71.20
12757;BME280;31601;48.042;12.240;2022-12-11T03:04:46;95348.41;;;0.26;71.00
12757;BME280;31601;48.042;12.240;2022-12-11T03:07:15;95365.97;;;0.12;71.32
12757;BME280;31601;48.042;12.240;2022-12-11T03:09:45;95363.38;;;0.12;70.96
12757;BME280;31601;48.042;12.240;2022-12-11T03:12:15;95363.53;;;0.11;70.79
12757;BME280;31601;48.042;12.240;2022-12-11T03:14:43;95363.09;;;0.25;70.33
12757;BME280;31601;48.042;12.240;2022-12-11T03:17:13;95370.97;;;0.24;70.54
12757;BME280;31601;48.042;12.240;2022-12-11T03:19:47;95370.06;;;0.43;70.25
12757;BME280;31601;48.042;12.240;2022-12-11T03:22:19;95373.94;;;0.57;69.90
12757;BME280;31601;48.042;12.240;2022-12-11T03:24:50;95370.00;;;0.62;70.30
12757;BME280;31601;48.042;12.240;2022-12-11T03:27:23;95374.44;;;0.70;69.92
12757;BME280;31601;48.042;12.240;2022-12-11T03:29:55;95373.75;;;0.68;70.04
12757;BME280;31601;48.042;12.240;2022-12-11T03:32:26;95362.53;;;0.59;69.96
12757;BME280;31601;48.042;12.240;2022-12-11T03:34:58;95363.13;;;0.71;69.91
12757;BME280;31601;48.042;12.240;2022-12-11T03:37:32;95364.53;;;0.65;70.05
12757;BME280;31601;48.042;12.240;2022-12-11T03:40:03;95366.00;;;0.68;69.86
12757;BME280;31601;48.042;12.240;2022-12-11T03:42:32;95363.19;;;0.61;70.31
12757;BME280;31601;48.042;12.240;2022-12-11T03:45:01;95362.63;;;0.67;70.00
12757;BME280;31601;48.042;12.240;2022-12-11T03:47:28;95352.09;;;0.79;69.64
12757;BME280;31601;48.042;12.240;2022-12-11T03:49:58;95357.13;;;0.80;69.66
12757;BME280;31601;48.042;12.240;2022-12-11T03:52:26;95358.47;;;0.84;69.63
12757;BME280;31601;48.042;12.240;2022-12-11T03:54:58;95360.66;;;0.79;69.79
12757;BME280;31601;48.042;12.240;2022-12-11T03:57:28;95353.94;;;0.86;69.85
12757;BME280;31601;48.042;12.240;2022-12-11T03:59:55;95354.19;;;0.93;69.95
12757;BME280;31601;48.042;12.240;2022-12-11T04:02:23;95354.34;;;0.92;69.87
12757;BME280;31601;48.042;12.240;2022-12-11T04:04:49;95354.84;;;0.95;69.96
12757;BME280;31601;48.042;12.240;2022-12-11T04:07:17;95359.59;;;1.00;69.86
12757;BME280;31601;48.042;12.240;2022-12-11T04:09:43;95352.63;;;1.00;69.95
12757;BME280;31601;48.042;12.240;2022-12-11T04:12:10;95355.94;;;0.93;70.03
12757;BME280;31601;48.042;12.240;2022-12-11T04:14:36;95353.50;;;0.91;70.01
12757;BME280;31601;48.042;12.240;2022-12-11T04:17:21;95356.50;;;0.96;70.09
12757;BME280;31601;48.042;12.240;2022-12-11T04:20:01;95357.06;;;0.90;69.93
12757;BME280;31601;48.042;12.240;2022-12-11T04:22:47;95358.09;;;0.97;69.70
12757;BME280;31601;48.042;12.240;2022-12-11T04:25:31;95359.09;;;0.68;70.04
12757;BME280;31601;48.042;12.240;2022-12-11T04:27:58;95365.53;;;0.82;69.90
12757;BME280;31601;48.042;12.240;2022-12-11T04:30:25;95360.84;;;0.40;70.79
12757;BME280;31601;48.042;12.240;2022-12-11T04:32:52;95365.06;;;0.41;70.84
12757;BME280;31601;48.042;12.240;2022-12-11T04:35:19;95360.19;;;0.38;71.08
12757;BME280;31601;48.042;12.240;2022-12-11T04:37:48;95364.41;;;0.39;70.81
12757;BME280;31601;48.042;12.240;2022-12-11T04:40:16;95358.72;;;0.26;70.83
12757;BME280;31601;48.042;12.240;2022-12-11T04:42:43;95363.75;;;-0.20;71.67
12757;BME280;31601;48.042;12.240;2022-12-11T04:45:11;95361.59;;;-0.34;72.25
12757;BME280;31601;48.042;12.240;2022-12-11T04:47:39;95357.81;;;-0.50;72.76
12757;BME280;31601;48.042;12.240;2022-12-11T04:50:08;95370.03;;;-0.32;72.44
12757;BME280;31601;48.042;12.240;2022-12-11T04:52:34;95359.28;;;-0.28;72.40
12757;BME280;31601;48.042;12.240;2022-12-11T04:55:03;95368.75;;;-0.09;71.85
12757;BME280;31601;48.042;12.240;2022-12-11T04:57:30;95367.56;;;-0.44;72.57
12757;BME280;31601;48.042;12.240;2022-12-11T04:59:56;95367.84;;;-0.37;72.43
12757;BME280;31601;48.042;12.240;2022-12-11T05:02:24;95372.84;;;-0.26;72.46
12757;BME280;31601;48.042;12.240;2022-12-11T05:04:50;95368.91;;;-0.30;72.49
12757;BME280;31601;48.042;12.240;2022-12-11T05:07:17;95378.31;;;-0.68;73.29
12757;BME280;31601;48.042;12.240;2022-12-11T05:09:44;95376.00;;;-0.71;74.17
12757;BME280;31601;48.042;12.240;2022-12-11T05:12:12;95379.78;;;-0.75;74.32
12757;BME280;31601;48.042;12.240;2022-12-11T05:14:38;95384.81;;;-0.83;74.81
12757;BME280;31601;48.042;12.240;2022-12-11T05:17:05;95377.34;;;-0.67;74.12
12757;BME280;31601;48.042;12.240;2022-12-11T05:19:31;95386.00;;;-0.48;73.54
12757;BME280;31601;48.042;12.240;2022-12-11T05:21:57;95376.81;;;-0.70;74.44
12757;BME280;31601;48.042;12.240;2022-12-11T05:24:24;95380.19;;;-0.89;74.68
12757;BME280;31601;48.042;12.240;2022-12-11T05:26:50;95376.94;;;-0.62;74.00
12757;BME280;31601;48.042;12.240;2022-12-11T05:29:18;95374.91;;;-0.59;74.17
12757;BME280;31601;48.042;12.240;2022-12-11T05:31:45;95381.69;;;-0.58;74.19
12757;BME280;31601;48.042;12.240;2022-12-11T05:34:11;95375.97;;;-0.51;73.48
12757;BME280;31601;48.042;12.240;2022-12-11T05:36:39;95376.50;;;-0.19;72.80
12757;BME280;31601;48.042;12.240;2022-12-11T05:39:05;95377.69;;;-0.13;71.92
12757;BME280;31601;48.042;12.240;2022-12-11T05:41:32;95376.03;;;0.06;71.53
12757;BME280;31601;48.042;12.240;2022-12-11T05:43:58;95374.59;;;-0.16;72.03
12757;BME280;31601;48.042;12.240;2022-12-11T05:46:28;95368.56;;;0.03;71.63
12757;BME280;31601;48.042;12.240;2022-12-11T05:48:57;95369.09;;;0.06;71.40
12757;BME280;31601;48.042;12.240;2022-12-11T05:51:24;95361.22;;;0.17;70.99
12757;BME280;31601;48.042;12.240;2022-12-11T05:53:52;95362.38;;;-0.05;71.43
12757;BME280;31601;48.042;12.240;2022-12-11T05:56:21;95365.56;;;0.07;70.88
12757;BME280;31601;48.042;12.240;2022-12-11T05:58:48;95356.34;;;0.14;70.39
12757;BME280;31601;48.042;12.240;2022-12-11T06:01:17;95358.06;;;0.24;70.04
12757;BME280;31601;48.042;12.240;2022-12-11T06:03:45;95360.38;;;0.17;69.98
12757;BME280;31601;48.042;12.240;2022-12-11T06:06:12;95359.56;;;0.16;69.78
12757;BME280;31601;48.042;12.240;2022-12-11T06:08:39;95372.38;;;0.08;69.79
12757;BME280;31601;48.042;12.240;2022-12-11T06:11:06;95361.50;;;0.05;69.92
12757;BME280;31601;48.042;12.240;2022-12-11T06:13:33;95371.47;;;-0.10;69.65
12757;BME280;31601;48.042;12.240;2022-12-11T06:16:00;95365.22;;;-0.17;69.50
12757;BME280;31601;48.042;12.240;2022-12-11T06:18:27;95368.50;;;-0.25;69.03
12757;BME280;31601;48.042;12.240;2022-12-11T06:20:55;95370.81;;;-0.51;69.80
12757;BME280;31601;48.042;12.240;2022-12-11T06:23:22;95371.22;;;-0.27;69.28
12757;BME280;31601;48.042;12.240;2022-12-11T06:25:48;95373.13;;;-0.29;69.15
12757;BME280;31601;48.042;12.240;2022-12-11T06:28:15;95371.34;;;-0.19;68.51
12757;BME280;31601;48.042;12.240;2022-12-11T06:30:41;95364.84;;;-0.23;68.89
12757;BME280;31601;48.042;12.240;2022-12-11T06:33:09;95370.28;;;-0.26;68.80
12757;BME280;31601;48.042;12.240;2022-12-11T06:35:35;95367.00;;;-0.18;68.90
12757;BME280;31601;48.042;12.240;2022-12-11T06:38:03;95368.91;;;-0.20;68.78
12757;BME280;31601;48.042;12.240;2022-12-11T06:40:30;95365.22;;;-0.17;68.73
12757;BME280;31601;48.042;12.240;2022-12-11T06:42:56;95367.06;;;-0.57;69.15
12757;BME280;31601;48.042;12.240;2022-12-11T06:45:22;95377.47;;;-0.29;68.64
12757;BME280;31601;48.042;12.240;2022-12-11T06:47:49;95370.97;;;-0.33;68.31
12757;BME280;31601;48.042;12.240;2022-12-11T06:50:15;95371.91;;;-0.64;69.33
12757;BME280;31601;48.042;12.240;2022-12-11T06:52:42;95369.34;;;-0.83;69.50
12757;BME280;31601;48.042;12.240;2022-12-11T06:55:10;95362.97;;;-0.89;69.86
12757;BME280;31601;48.042;12.240;2022-12-11T06:57:36;95366.78;;;-0.74;69.95
12757;BME280;31601;48.042;12.240;2022-12-11T07:00:03;95364.19;;;-0.83;69.65
12757;BME280;31601;48.042;12.240;2022-12-11T07:02:30;95365.41;;;-0.97;70.08
12757;BME280;31601;48.042;12.240;2022-12-11T07:04:57;95365.53;;;-0.79;69.87
12757;BME280;31601;48.042;12.240;2022-12-11T07:07:23;95366.34;;;-0.88;69.83
12757;BME280;31601;48.042;12.240;2022-12-11T07:09:50;95370.81;;;-0.81;69.96
12757;BME280;31601;48.042;12.240;2022-12-11T07:12:18;95375.97;;;-0.51;69.11
12757;BME280;31601;48.042;12.240;2022-12-11T07:14:44;95375.69;;;-0.29;68.30
12757;BME280;31601;48.042;12.240;2022-12-11T07:17:11;95374.06;;;-0.20;68.15
12757;BME280;31601;48.042;12.240;2022-12-11T07:19:37;95384.09;;;-0.17;67.66
12757;BME280;31601;48.042;12.240;2022-12-11T07:22:05;95379.22;;;-0.20;67.91
12757;BME280;31601;48.042;12.240;2022-12-11T07:24:31;95388.56;;;-0.09;67.44
12757;BME280;31601;48.042;12.240;2022-12-11T07:26:58;95390.63;;;-0.23;67.57
12757;BME280;31601;48.042;12.240;2022-12-11T07:29:25;95393.06;;;-0.31;67.74
12757;BME280;31601;48.042;12.240;2022-12-11T07:31:52;95403.06;;;-0.08;67.27
12757;BME280;31601;48.042;12.240;2022-12-11T07:34:18;95394.91;;;-0.04;67.18
12757;BME280;31601;48.042;12.240;2022-12-11T07:36:45;95404.81;;;0.01;67.33
12757;BME280;31601;48.042;12.240;2022-12-11T07:39:11;95396.81;;;0.04;67.20
12757;BME280;31601;48.042;12.240;2022-12-11T07:41:38;95400.59;;;0.10;67.33
12757;BME280;31601;48.042;12.240;2022-12-11T07:44:05;95401.53;;;0.09;67.70
12757;BME280;31601;48.042;12.240;2022-12-11T07:46:33;95405.63;;;0.11;67.96
12757;BME280;31601;48.042;12.240;2022-12-11T07:49:00;95399.47;;;0.22;67.51
12757;BME280;31601;48.042;12.240;2022-12-11T07:51:29;95406.25;;;0.23;67.03
12757;BME280;31601;48.042;12.240;2022-12-11T07:53:58;95399.72;;;0.29;67.33
12757;BME280;31601;48.042;12.240;2022-12-11T07:56:26;95408.81;;;0.33;66.82
12757;BME280;31601;48.042;12.240;2022-12-11T07:58:53;95401.09;;;0.33;66.98
12757;BME280;31601;48.042;12.240;2022-12-11T08:01:22;95405.00;;;0.37;67.12
12757;BME280;31601;48.042;12.240;2022-12-11T08:03:52;95396.69;;;0.43;67.06
12757;BME280;31601;48.042;12.240;2022-12-11T08:06:19;95399.25;;;0.43;67.48
12757;BME280;31601;48.042;12.240;2022-12-11T08:08:49;95408.59;;;0.54;67.36
12757;BME280;31601;48.042;12.240;2022-12-11T08:11:16;95409.16;;;0.58;67.50
12757;BME280;31601;48.042;12.240;2022-12-11T08:13:42;95420.50;;;0.65;67.54
12757;BME280;31601;48.042;12.240;2022-12-11T08:16:10;95412.19;;;0.71;67.51
12757;BME280;31601;48.042;12.240;2022-12-11T08:18:38;95409.19;;;0.76;67.64
12757;BME280;31601;48.042;12.240;2022-12-11T08:21:06;95406.03;;;0.82;67.73
12757;BME280;31601;48.042;12.240;2022-12-11T08:23:33;95408.59;;;0.92;67.60
12757;BME280;31601;48.042;12.240;2022-12-11T08:26:01;95413.53;;;1.03;67.55
12757;BME280;31601;48.042;12.240;2022-12-11T08:28:28;95412.97;;;1.09;67.40
12757;BME280;31601;48.042;12.240;2022-12-11T08:30:54;95408.16;;;1.14;67.37
12757;BME280;31601;48.042;12.240;2022-12-11T08:33:21;95410.16;;;1.20;67.56
12757;BME280;31601;48.042;12.240;2022-12-11T08:35:47;95412.00;;;1.28;67.51
12757;BME280;31601;48.042;12.240;2022-12-11T08:38:15;95407.75;;;1.37;67.44
12757;BME280;31601;48.042;12.240;2022-12-11T08:40:42;95399.13;;;1.46;67.39
12757;BME280;31601;48.042;12.240;2022-12-11T08:43:08;95406.50;;;1.59;67.12
12757;BME280;31601;48.042;12.240;2022-12-11T08:45:35;95403.16;;;1.67;66.68
12757;BME280;31601;48.042;12.240;2022-12-11T08:48:01;95408.94;;;1.78;66.49
12757;BME280;31601;48.042;12.240;2022-12-11T08:50:28;95409.81;;;1.87;66.27
12757;BME280;31601;48.042;12.240;2022-12-11T08:52:54;95412.44;;;1.95;66.01
12757;BME280;31601;48.042;12.240;2022-12-11T08:55:22;95413.78;;;2.00;65.47
12757;BME280;31601;48.042;12.240;2022-12-11T08:57:49;95408.31;;;2.03;64.58
12757;BME280;31601;48.042;12.240;2022-12-11T09:00:16;95413.97;;;2.06;64.35
12757;BME280;31601;48.042;12.240;2022-12-11T09:02:43;95409.56;;;1.99;63.85
12757;BME280;31601;48.042;12.240;2022-12-11T09:05:09;95408.31;;;2.03;63.76
12757;BME280;31601;48.042;12.240;2022-12-11T09:07:36;95421.44;;;2.09;63.66
12757;BME280;31601;48.042;12.240;2022-12-11T09:10:04;95415.16;;;2.12;63.34
12757;BME280;31601;48.042;12.240;2022-12-11T09:12:33;95412.78;;;2.19;63.38
12757;BME280;31601;48.042;12.240;2022-12-11T09:15:00;95415.25;;;2.28;62.95
12757;BME280;31601;48.042;12.240;2022-12-11T09:17:26;95411.91;;;2.36;62.87
12757;BME280;31601;48.042;12.240;2022-12-11T09:19:53;95405.31;;;2.42;62.31
12757;BME280;31601;48.042;12.240;2022-12-11T09:22:19;95408.47;;;2.54;62.05
12757;BME280;31601;48.042;12.240;2022-12-11T09:24:46;95413.03;;;2.60;62.03
12757;BME280;31601;48.042;12.240;2022-12-11T09:27:12;95408.34;;;2.63;62.01
12757;BME280;31601;48.042;12.240;2022-12-11T09:29:40;95405.44;;;2.66;61.81
12757;BME280;31601;48.042;12.240;2022-12-11T09:32:07;95412.59;;;2.73;61.84
12757;BME280;31601;48.042;12.240;2022-12-11T09:34:33;95413.91;;;2.77;61.71
12757;BME280;31601;48.042;12.240;2022-12-11T09:37:00;95408.41;;;2.80;61.87
12757;BME280;31601;48.042;12.240;2022-12-11T09:39:27;95406.47;;;2.82;61.52
12757;BME280;31601;48.042;12.240;2022-12-11T09:41:58;95403.50;;;2.68;61.07
12757;BME280;31601;48.042;12.240;2022-12-11T09:44:32;95400.91;;;2.68;61.20
12757;BME280;31601;48.042;12.240;2022-12-11T09:47:01;95399.59;;;2.64;61.27
12757;BME280;31601;48.042;12.240;2022-12-11T09:49:33;95403.47;;;2.60;61.52
12757;BME280;31601;48.042;12.240;2022-12-11T09:52:07;95401.81;;;2.59;61.21
12757;BME280;31601;48.042;12.240;2022-12-11T09:54:35;95400.41;;;2.65;61.35
12757;BME280;31601;48.042;12.240;2022-12-11T09:57:11;95399.50;;;2.82;61.33
12757;BME280;31601;48.042;12.240;2022-12-11T10:00:02;95385.28;;;2.95;61.17
12757;BME280;31601;48.042;12.240;2022-12-11T10:02:40;95388.41;;;3.07;60.95
12757;BME280;31601;48.042;12.240;2022-12-11T10:05:14;95382.63;;;3.21;60.52
12757;BME280;31601;48.042;12.240;2022-12-11T10:07:47;95385.88;;;3.31;60.17
12757;BME280;31601;48.042;12.240;2022-12-11T10:10:22;95373.44;;;3.43;59.72
12757;BME280;31601;48.042;12.240;2022-12-11T10:12:59;95375.22;;;3.51;59.78
12757;BME280;31601;48.042;12.240;2022-12-11T10:15:34;95371.50;;;3.62;59.27
12757;BME280;31601;48.042;12.240;2022-12-11T10:18:08;95372.63;;;3.59;59.24
12757;BME280;31601;48.042;12.240;2022-12-11T10:20:36;95371.31;;;3.55;59.86
12757;BME280;31601;48.042;12.240;2022-12-11T10:23:07;95363.69;;;3.37;60.12
12757;BME280;31601;48.042;12.240;2022-12-11T10:25:35;95363.69;;;3.37;60.77
12757;BME280;31601;48.042;12.240;2022-12-11T10:28:09;95357.22;;;3.41;60.87
12757;BME280;31601;48.042;12.240;2022-12-11T10:30:40;95358.66;;;3.19;60.65
12757;BME280;31601;48.042;12.240;2022-12-11T10:33:18;95361.19;;;3.02;62.41
12757;BME280;31601;48.042;12.240;2022-12-11T10:35:48;95356.16;;;2.93;62.18
12757;BME280;31601;48.042;12.240;2022-12-11T10:38:20;95353.22;;;2.88;62.20
12757;BME280;31601;48.042;12.240;2022-12-11T10:40:50;95353.88;;;2.98;62.07
12757;BME280;31601;48.042;12.240;2022-12-11T10:43:17;95349.34;;;2.92;61.60
12757;BME280;31601;48.042;12.240;2022-12-11T10:45:49;95345.47;;;2.88;61.88
12757;BME280;31601;48.042;12.240;2022-12-11T10:48:18;95342.97;;;2.78;62.06
12757;BME280;31601;48.042;12.240;2022-12-11T10:50:55;95347.22;;;2.79;61.75
12757;BME280;31601;48.042;12.240;2022-12-11T10:53:22;95342.34;;;2.84;62.22
12757;BME280;31601;48.042;12.240;2022-12-11T10:55:50;95342.66;;;2.81;62.45
12757;BME280;31601;48.042;12.240;2022-12-11T10:58:19;95342.81;;;2.79;62.26
12757;BME280;31601;48.042;12.240;2022-12-11T11:00:48;95337.16;;;2.76;62.39
12757;BME280;31601;48.042;12.240;2022-12-11T11:03:26;95334.19;;;2.62;62.12
12757;BME280;31601;48.042;12.240;2022-12-11T11:06:01;95326.63;;;2.69;62.44
12757;BME280;31601;48.042;12.240;2022-12-11T11:08:37;95322.94;;;2.80;61.94
12757;BME280;31601;48.042;12.240;2022-12-11T11:11:04;95323.09;;;2.78;62.19
12757;BME280;31601;48.042;12.240;2022-12-11T11:13:33;95321.31;;;2.79;61.87
12757;BME280;31601;48.042;12.240;2022-12-11T11:16:01;95315.78;;;2.74;60.93
12757;BME280;31601;48.042;12.240;2022-12-11T11:18:31;95309.19;;;2.37;60.99
12757;BME280;31601;48.042;12.240;2022-12-11T11:20:59;95310.88;;;2.54;60.22
12757;BME280;31601;48.042;12.240;2022-12-11T11:23:27;95304.88;;;2.54;60.36
12757;BME280;31601;48.042;12.240;2022-12-11T11:25:56;95305.00;;;2.44;60.89
12757;BME280;31601;48.042;12.240;2022-12-11T11:28:24;95299.81;;;2.44;61.36
12757;BME280;31601;48.042;12.240;2022-12-11T11:31:00;95291.88;;;2.45;61.27
12757;BME280;31601;48.042;12.240;2022-12-11T11:33:29;95296.03;;;2.30;61.33
12757;BME280;31601;48.042;12.240;2022-12-11T11:35:58;95291.69;;;2.30;61.04
12757;BME280;31601;48.042;12.240;2022-12-11T11:38:28;95297.56;;;2.06;61.61
12757;BME280;31601;48.042;12.240;2022-12-11T11:41:02;95296.44;;;2.09;61.14
12757;BME280;31601;48.042;12.240;2022-12-11T11:43:35;95285.81;;;1.59;62.60
12757;BME280;31601;48.042;12.240;2022-12-11T11:46:08;95285.56;;;0.91;63.99
12757;BME280;31601;48.042;12.240;2022-12-11T11:48:42;95293.91;;;1.02;64.17
12757;BME280;31601;48.042;12.240;2022-12-11T11:51:17;95283.25;;;0.69;65.34
12757;BME280;31601;48.042;12.240;2022-12-11T11:53:49;95290.13;;;0.61;65.51
12757;BME280;31601;48.042;12.240;2022-12-11T11:56:19;95283.66;;;0.75;65.44
12757;BME280;31601;48.042;12.240;2022-12-11T11:58:52;95281.06;;;1.11;64.73
12757;BME280;31601;48.042;12.240;2022-12-11T12:01:21;95282.59;;;0.67;64.57
12757;BME280;31601;48.042;12.240;2022-12-11T12:03:48;95280.81;;;0.68;64.54
12757;BME280;31601;48.042;12.240;2022-12-11T12:06:23;95279.06;;;0.86;64.81
12757;BME280;31601;48.042;12.240;2022-12-11T12:08:56;95283.78;;;0.91;64.20
12757;BME280;31601;48.042;12.240;2022-12-11T12:11:30;95276.78;;;0.83;64.56
12757;BME280;31601;48.042;12.240;2022-12-11T12:14:07;95277.59;;;0.84;64.65
12757;BME280;31601;48.042;12.240;2022-12-11T12:16:43;95276.34;;;1.06;64.22
12757;BME280;31601;48.042;12.240;2022-12-11T12:19:17;95272.06;;;0.79;64.14
12757;BME280;31601;48.042;12.240;2022-12-11T12:21:50;95274.44;;;0.44;64.52
12757;BME280;31601;48.042;12.240;2022-12-11T12:24:27;95273.16;;;0.58;65.29
12757;BME280;31601;48.042;12.240;2022-12-11T12:26:59;95279.03;;;0.50;65.04
12757;BME280;31601;48.042;12.240;2022-12-11T12:29:35;95277.69;;;0.46;65.60
12757;BME280;31601;48.042;12.240;2022-12-11T12:32:11;95273.06;;;0.50;65.49
12757;BME280;31601;48.042;12.240;2022-12-11T12:34:55;95273.22;;;0.48;65.21
12757;BME280;31601;48.042;12.240;2022-12-11T12:37:40;95276.81;;;0.10;66.39
12757;BME280;31601;48.042;12.240;2022-12-11T12:40:19;95275.69;;;0.12;66.41
12757;BME280;31601;48.042;12.240;2022-12-11T12:42:54;95280.28;;;-0.09;66.65
12757;BME280;31601;48.042;12.240;2022-12-11T12:45:28;95275.13;;;0.18;67.19
12757;BME280;31601;48.042;12.240;2022-12-11T12:47:56;95275.09;;;0.28;66.26
12757;BME280;31601;48.042;12.240;2022-12-11T12:50:24;95272.53;;;0.46;65.47
12757;BME280;31601;48.042;12.240;2022-12-11T12:52:54;95271.59;;;0.20;66.22
12757;BME280;31601;48.042;12.240;2022-12-11T12:55:24;95271.94;;;0.07;67.04
12757;BME280;31601;48.042;12.240;2022-12-11T12:57:53;95268.06;;;0.21;65.70
12757;BME280;31601;48.042;12.240;2022-12-11T13:00:28;95271.78;;;0.08;66.22
12757;BME280;31601;48.042;12.240;2022-12-11T13:02:55;95275.03;;;-0.27;66.02
12757;BME280;31601;48.042;12.240;2022-12-11T13:05:24;95270.41;;;-0.24;66.21
12757;BME280;31601;48.042;12.240;2022-12-11T13:07:55;95280.06;;;-0.26;66.69